createdAt,value
2022-08-03T00:05:03.427Z,1.88
2022-08-03T00:10:19.458Z,1.40
2022-08-03T00:15:35.203Z,1.20
2022-08-03T00:20:50.130Z,1.33
2022-08-03T00:26:05.152Z,1.10
2022-08-03T00:31:32.212Z,1.30
2022-08-03T00:36:55.140Z,1.58
2022-08-03T00:42:10.201Z,1.55
2022-08-03T00:47:25.478Z,1.67
2022-08-03T00:52:41.213Z,1.52
2022-08-03T00:57:56.158Z,1.10
2022-08-03T01:03:11.460Z,2.28
2022-08-03T01:08:27.456Z,1.63
2022-08-03T01:14:03.418Z,1.52
2022-08-03T01:19:18.136Z,1.30
2022-08-03T01:24:33.132Z,2.22
2022-08-03T01:29:48.221Z,1.30
2022-08-03T01:35:03.464Z,1.50
2022-08-03T01:40:19.493Z,1.27
2022-08-03T01:45:35.361Z,1.30
2022-08-03T01:50:51.458Z,1.35
2022-08-03T01:56:06.933Z,3.03
2022-08-03T02:01:22.458Z,1.05
2022-08-03T02:07:01.911Z,1.17
2022-08-03T02:12:13.621Z,1.42
2022-08-03T02:17:39.278Z,4.47
2022-08-03T02:22:55.452Z,1.33
2022-08-03T02:28:10.919Z,1.52
2022-08-03T02:33:26.466Z,2.20
2022-08-03T02:38:42.498Z,4.20
2022-08-03T02:44:07.066Z,2.28
2022-08-03T02:49:40.814Z,1.83
2022-08-03T02:54:58.132Z,1.05
2022-08-03T03:00:13.244Z,2.85
2022-08-03T03:05:52.318Z,0.68
2022-08-03T03:11:11.163Z,1.52
2022-08-03T03:16:26.195Z,2.75
2022-08-03T03:21:41.174Z,2.60
2022-08-03T03:26:56.243Z,2.35
2022-08-03T03:32:11.460Z,1.08
2022-08-03T03:37:27.242Z,3.33
2022-08-03T03:42:42.566Z,1.73
2022-08-03T03:47:58.433Z,1.15
2022-08-03T03:53:14.463Z,1.27
2022-08-03T03:58:31.502Z,3.30
2022-08-03T04:03:47.177Z,1.60
2022-08-03T04:09:02.464Z,1.52
2022-08-03T04:14:18.469Z,3.42
2022-08-03T04:19:34.536Z,0.95
2022-08-03T04:24:50.521Z,1.10
2022-08-03T04:30:06.166Z,1.33
2022-08-03T04:35:21.482Z,3.03
2022-08-03T04:40:56.208Z,2.05
2022-08-03T04:46:11.493Z,2.55
2022-08-03T04:51:27.150Z,2.17
2022-08-03T04:56:42.191Z,1.65
2022-08-03T05:01:57.218Z,1.30
2022-08-03T05:07:13.471Z,1.67
2022-08-03T05:12:32.578Z,2.70
2022-08-03T05:17:48.480Z,2.08
2022-08-03T05:23:04.455Z,1.48
2022-08-03T05:28:20.182Z,2.20
2022-08-03T05:33:35.183Z,2.55
2022-08-03T05:38:50.193Z,1.83
2022-08-03T05:44:05.252Z,2.38
2022-08-03T05:49:20.525Z,3.60
2022-08-03T05:54:56.441Z,4.25
2022-08-03T06:00:11.221Z,2.80
2022-08-03T06:05:28.191Z,2.53
2022-08-03T06:10:43.460Z,3.25
2022-08-03T06:15:59.522Z,4.55
2022-08-03T06:21:16.262Z,2.88
2022-08-03T06:26:32.178Z,2.42
2022-08-03T06:31:47.462Z,2.63
2022-08-03T06:37:02.953Z,3.58
2022-08-03T06:42:18.588Z,3.63
2022-08-03T06:47:36.187Z,2.30
2022-08-03T06:52:51.180Z,3.05
2022-08-03T06:58:06.221Z,4.10
2022-08-03T07:03:21.267Z,5.65
2022-08-03T07:08:36.193Z,2.55
2022-08-03T07:13:51.193Z,3.58
2022-08-03T07:19:05.965Z,4.72
2022-08-03T07:24:21.237Z,4.05
2022-08-03T07:29:36.276Z,3.78
2022-08-03T07:34:51.494Z,5.80
2022-08-03T07:40:07.197Z,6.47
2022-08-03T07:45:22.245Z,3.25
2022-08-03T07:50:37.204Z,4.10
2022-08-03T07:55:52.513Z,4.70
2022-08-03T08:01:08.282Z,6.70
2022-08-03T08:06:24.196Z,4.28
2022-08-03T08:11:40.244Z,2.67
2022-08-03T08:16:55.533Z,4.30
2022-08-03T08:22:11.174Z,4.38
2022-08-03T08:27:27.180Z,4.97
2022-08-03T08:32:42.222Z,2.58
2022-08-03T08:37:57.508Z,6.18
2022-08-03T08:43:14.211Z,7.63
2022-08-03T08:48:29.478Z,7.70
2022-08-03T08:53:45.201Z,3.83
2022-08-03T08:59:00.481Z,4.43
2022-08-03T09:04:16.174Z,6.80
2022-08-03T09:10:10.998Z,5.38
2022-08-03T09:15:16.901Z,4.47
2022-08-03T09:20:33.208Z,6.70
2022-08-03T09:25:48.189Z,4.18
2022-08-03T09:31:03.554Z,5.43
2022-08-03T09:36:19.179Z,5.15
2022-08-03T09:41:34.219Z,5.65
2022-08-03T09:46:50.029Z,7.72
2022-08-03T09:52:31.641Z,4.82
2022-08-03T09:57:40.179Z,6.30
2022-08-03T10:03:00.214Z,5.88
2022-08-03T10:08:15.533Z,5.95
2022-08-03T10:13:31.495Z,7.68
2022-08-03T10:18:47.557Z,5.32
2022-08-03T10:24:03.208Z,7.20
2022-08-03T10:29:18.193Z,8.10
2022-08-03T10:34:33.505Z,13.68
2022-08-03T10:39:49.500Z,5.57
2022-08-03T10:45:05.022Z,5.47
2022-08-03T10:50:20.509Z,7.55
2022-08-03T10:55:38.565Z,11.68
2022-08-03T11:00:54.247Z,6.32
2022-08-03T11:06:09.249Z,6.90
2022-08-03T11:11:25.189Z,6.50
2022-08-03T11:16:40.516Z,4.93
2022-08-03T11:21:56.545Z,6.55
2022-08-03T11:27:12.542Z,7.80
2022-08-03T11:32:28.225Z,7.55
2022-08-03T11:37:43.245Z,6.80
2022-08-03T11:43:18.207Z,5.45
2022-08-03T11:48:33.196Z,8.90
2022-08-03T11:53:48.201Z,5.63
2022-08-03T11:59:20.079Z,4.75
2022-08-03T12:04:37.226Z,6.97
2022-08-03T12:09:52.250Z,9.48
2022-08-03T12:15:07.342Z,5.22
2022-08-03T12:20:34.766Z,11.10
2022-08-03T12:25:51.213Z,8.40
2022-08-03T12:31:06.040Z,5.88
2022-08-03T12:36:22.193Z,7.97
2022-08-03T12:41:37.509Z,7.55
2022-08-03T12:46:53.214Z,6.93
2022-08-03T12:52:07.997Z,7.03
2022-08-03T12:57:23.559Z,7.35
2022-08-03T13:02:39.615Z,5.30
2022-08-03T13:08:02.536Z,4.97
2022-08-03T13:13:18.215Z,4.95
2022-08-03T13:18:33.262Z,6.35
2022-08-03T13:23:49.220Z,5.57
2022-08-03T13:29:04.548Z,6.47
2022-08-03T13:34:23.625Z,5.25
2022-08-03T13:39:57.682Z,3.90
2022-08-03T13:45:14.222Z,7.97
2022-08-03T13:50:29.221Z,4.40
2022-08-03T13:55:44.482Z,4.28
2022-08-03T14:01:00.215Z,3.67
2022-08-03T14:06:15.207Z,7.50
2022-08-03T14:12:08.379Z,5.43
2022-08-03T14:17:05.237Z,4.03
2022-08-03T14:22:20.262Z,6.03
2022-08-03T14:27:35.243Z,6.63
2022-08-03T14:32:50.263Z,6.75
2022-08-03T14:38:05.232Z,3.95
2022-08-03T14:43:20.056Z,3.08
2022-08-03T14:50:30.829Z,2.40
2022-08-03T14:54:10.272Z,2.67
2022-08-03T14:59:25.263Z,4.68
2022-08-03T15:04:40.227Z,3.55
2022-08-03T15:09:55.232Z,4.50
2022-08-03T15:15:10.556Z,4.28
2022-08-03T15:20:40.970Z,4.25
2022-08-03T15:26:04.032Z,5.35
2022-08-03T15:31:34.558Z,3.67
2022-08-03T15:36:50.542Z,4.63
2022-08-03T15:42:06.316Z,3.08
2022-08-03T15:47:21.768Z,3.58
2022-08-03T15:52:37.288Z,3.28
2022-08-03T15:59:04.854Z,2.03
2022-08-03T16:03:27.230Z,6.60
2022-08-03T16:08:42.210Z,4.47
2022-08-03T16:14:13.636Z,3.03
2022-08-03T16:19:33.461Z,5.28
2022-08-03T16:24:49.228Z,4.18
2022-08-03T16:30:04.229Z,4.05
2022-08-03T16:35:21.349Z,4.03
2022-08-03T16:40:37.551Z,3.85
2022-08-03T16:45:53.317Z,3.35
2022-08-03T16:51:08.367Z,2.92
2022-08-03T16:56:23.300Z,5.68
2022-08-03T17:01:38.629Z,2.53
2022-08-03T17:06:54.269Z,12.00
2022-08-03T17:12:10.942Z,3.78
2022-08-03T17:17:26.251Z,5.65
2022-08-03T17:22:41.217Z,4.18
2022-08-03T17:28:50.363Z,2.72
2022-08-03T17:33:35.331Z,4.88
2022-08-03T17:38:51.259Z,4.80
2022-08-03T17:44:15.808Z,5.88
2022-08-03T17:49:43.322Z,4.13
2022-08-03T17:55:56.101Z,3.90
2022-08-03T18:00:33.225Z,6.95
2022-08-03T18:06:10.641Z,4.85
2022-08-03T18:11:35.463Z,3.97
2022-08-03T18:16:51.524Z,3.95
2022-08-03T18:22:09.949Z,8.63
2022-08-03T18:27:48.037Z,7.23
2022-08-03T18:34:18.465Z,6.53
2022-08-03T18:38:37.258Z,5.13
2022-08-03T18:44:08.747Z,4.53
2022-08-03T18:49:30.557Z,4.32
2022-08-03T18:55:02.932Z,2.83
2022-08-03T19:00:24.306Z,4.43
2022-08-03T19:06:02.411Z,6.05
2022-08-03T19:11:21.220Z,4.85
2022-08-03T19:16:43.555Z,4.20
2022-08-03T19:22:00.273Z,2.97
2022-08-03T19:27:16.084Z,3.65
2022-08-03T19:32:31.295Z,3.08
2022-08-03T19:37:46.303Z,2.65
2022-08-03T19:43:01.292Z,5.70
2022-08-03T19:48:17.262Z,5.40
2022-08-03T19:53:35.352Z,2.58
2022-08-03T19:59:28.265Z,6.10
2022-08-03T20:04:43.245Z,5.95
2022-08-03T20:09:58.250Z,3.53
2022-08-03T20:15:13.571Z,4.40
2022-08-03T20:20:33.547Z,2.83
2022-08-03T20:25:58.700Z,4.10
2022-08-03T20:31:14.522Z,4.05
2022-08-03T20:36:30.358Z,3.50
2022-08-03T20:41:45.277Z,4.28
2022-08-03T20:47:00.948Z,2.35
2022-08-03T20:52:18.434Z,3.00
2022-08-03T20:57:34.058Z,1.98
2022-08-03T21:02:55.551Z,2.20
2022-08-03T21:08:13.575Z,3.10
2022-08-03T21:13:31.564Z,3.40
2022-08-03T21:18:47.301Z,2.72
2022-08-03T21:24:02.328Z,4.35
2022-08-03T21:29:17.541Z,3.15
2022-08-03T21:34:33.564Z,2.85
2022-08-03T21:39:50.462Z,5.85
2022-08-03T21:45:06.263Z,3.80
2022-08-03T21:50:21.665Z,2.58
2022-08-03T21:55:37.294Z,2.75
2022-08-03T22:00:52.543Z,4.85
2022-08-03T22:06:08.245Z,3.05
2022-08-03T22:11:35.241Z,5.15
2022-08-03T22:16:50.283Z,3.13
2022-08-03T22:22:05.305Z,3.28
2022-08-03T22:27:20.472Z,1.77
2022-08-03T22:32:36.546Z,2.70
2022-08-03T22:37:52.257Z,2.03
2022-08-03T22:43:08.255Z,2.72
2022-08-03T22:48:23.366Z,4.30
2022-08-03T22:53:38.571Z,4.10
2022-08-03T22:58:54.255Z,2.70
2022-08-03T23:04:09.298Z,3.63
2022-08-03T23:09:24.275Z,2.63
2022-08-03T23:14:39.247Z,4.75
2022-08-03T23:19:54.592Z,2.63
2022-08-03T23:25:10.592Z,2.95
2022-08-03T23:30:31.267Z,3.67
2022-08-03T23:36:27.739Z,3.75
2022-08-03T23:41:22.244Z,3.58
2022-08-03T23:46:37.261Z,4.55
2022-08-03T23:51:52.546Z,4.72
2022-08-03T23:57:08.580Z,3.33
